Racecast

Jordan Herrera

Cherokee Trail (CO) · 12 · CENTENNIALCO D5A5A · Compare head to head

Athlete rating 133.2 2017 TF season
Best race 135.7 XC
Races 43
Seasons 5 2013 — 2017

RankedNation #1319·CO #65·CO D5A #47·CENTENNIAL #5·Team #1 ?

Speed rating — all races

Cross Country

XC speed rating

2016 XC 131.8

Cherokee Trail (CO) · Grade 12

Date Meet Event Result Place Rating Difficulty PR/SR Flags
2016-10-29 Norris Penrose Event Center 5000m 20:28.4 53rd · 2nd on team 129.2 +0.067 ★CR CSR
2016-10-20 Cherry Creek State Park 5000m 19:08 4th · 1st on team 133.0 +0.033 ★CR CSR
2016-10-13 Julia deKoevend Park 5000m 19:26 7th · 2nd on team 134.1 +0.054 ★CR CSR RSR
2016-10-07 Bear Creek Regional Park 5000m 19:21.8 3rd · 1st on team 133.3 +0.043 ★CR CSR RSR
2016-09-30 Grande Sports Complex 5000m 18:46.6 32nd · 1st on team 132.6 +0.004 CSR RSR
2016-09-17 Rock Canyon Invitational Course 5000m 19:20 6th · 1st on team 131.4 +0.032 ★CR CSR
2016-09-09 Heritage High School 5000m 18:46 9th · 1st on team 132.5 -0.001 ★CR SR CSR RSR
2016-09-02 Julia deKoevend Park 5000m 20:07 10th · 1st on team 128.1 +0.054 SR CSR RSR

2015 XC 129.5

Cherokee Trail (CO) · Grade 11

Date Meet Event Result Place Rating Difficulty PR/SR Flags
2015-10-22 Aurora Sports Park 5000m 20:21.1 4th · 1st on team 124.4 +0.030 ★CR CSR
2015-10-02 Grande Sports Complex 5000m 18:17.4 17th · 1st on team 135.7 +0.004 ★PR ★CR ★R SR CSR RSR
2015-09-19 Rock Canyon Invitational Course 5000m 19:51 10th · 2nd on team 128.0 +0.032 CR CSR
2015-09-11 Heritage High School 5000m 19:01 14th · 1st on team 130.2 -0.001 PR CR SR CSR RSR
2015-08-28 Cherry Creek State Park 5000m 19:51.6 7th · 2nd on team 129.1 +0.033 CR SR CSR RSR

2014 XC 126.8

Cherokee Trail (CO) · Grade 10

Date Meet Event Result Place Rating Difficulty PR/SR Flags
2014-11-22 Grande Sports Complex 5000m 19:08 86th · 1st on team 129.5 +0.004 CR CSR
2014-10-25 Norris Penrose Event Center 5000m 21:03 40th · 1st on team 125.8 +0.067 CR CSR
2014-10-16 TC Home Meet 5000m 20:03 5th · 1st on team 125.8 +0.021 ★CR CSR
2014-10-09 Julia deKoevend Park 5000m 19:49 9th · 1st on team 129.8 +0.054 CR R CSR RSR
2014-09-12 Heritage High School 5000m 19:05 35th · 1st on team 127.2 -0.001 PR CR R SR CSR RSR
2014-09-04 Aurora Sports Park 5000m 20:40 7th · 1st on team 122.9 +0.030 CR SR CSR RSR

2013 XC 118.7

Cherokee Trail (CO) · Grade 9

Date Meet Event Result Place Rating Difficulty PR/SR Flags
2013-10-26 Norris Penrose Event Center 5000m 22:12.9 128th · 6th on team 118.1 +0.067 CR CSR
2013-10-17 Clement Park 5000m 20:38 26th · 4th on team 122.3 +0.030 PR ★CR R SR CSR RSR
2013-08-30 Julia deKoevend Park 5000m 22:28 15th · 2nd on team 115.7 +0.054 PR CR R SR CSR RSR

Track & Field

TF speed rating

2017 TF 131.9

Cherokee Trail (CO) · Grade 12

Date Meet Event Result Place Rating Difficulty PR/SR Flags
2017-05-06 Cherry Creek Invitational 800m 2:20.47 2nd · 1st on team 133.4 -0.014 ★PR SR
2017-04-15 Pomona Invite 800m 2:22.64 6th · 1st on team 131.8 -0.011
2017-04-15 Pomona Invite 1600m 5:14.3 3rd · 1st on team 134.4 -0.011 ★PR SR RSR
2017-04-08 Legend Titan Track Clash 1600m 5:27.45 1st · 1st on team 129.7 -0.003 SR
2017-04-08 Legend Titan Track Clash 800m 2:24.33 2nd · 1st on team 130.9 -0.003
2017-04-01 Altitude Running Invitational 800m 2:22.15 2nd · 1st on team 132.4 -0.011 PR SR RSR
2017-03-25 Broomfield Shootout 3200m 11:36.13 10th · 1st on team 130.7 -0.012 ★PR SR RSR

2016 TF 127.4

Cherokee Trail (CO) · Grade 11

Date Meet Event Result Place Rating Difficulty PR/SR Flags
2016-05-21 CHSAA 5A State Championships 1600m 5:32.24 15th · 1st on team 127.5 -0.011 SR RSR
2016-05-07 Cherry Creek Grandview Invite 3200m 11:54.47 5th · 1st on team 127.2 -0.011 PR SR RSR

2015 TF 126.8

Cherokee Trail (CO) · Grade 10

Date Meet Event Result Place Rating Difficulty PR/SR Flags
2015-05-07 Centennial League Championships 1600m 5:22.74 3rd · 1st on team 130.6 -0.014 PR SR
2015-04-24 Stutler Bowl Qualifier 800m 2:23.07 9th · 1st on team 130.6 -0.014 PR R SR RSR
2015-04-10 Pomona Invitational 1600m 5:26.42 6th · 1st on team 129.5 -0.011 PR SR
2015-04-10 Pomona Invitational 800m 2:27.03 8th · 1st on team 127.4 -0.011
2015-04-04 Legend Track Classic 800m 2:25.91 6th · 1st on team 129.4 -0.003
2015-04-04 Legend Track Classic 3200m 12:20.89 3rd · 1st on team 123.9 -0.003
2015-03-27 Broomfield Shootout 1600m 5:27.27 4th · 1st on team 129.0 -0.012 PR SR RSR
2015-03-27 Broomfield Shootout 800m 2:24.02 5th · 1st on team 129.9 -0.012 PR R SR RSR
2015-03-21 Greeley Central Invitational 3200m 12:16.02 4th · 2nd on team 123.6 -0.011 PR SR RSR
2015-02-07 Air Force HS Open 1mile 5:50.03 14th · 1st on team 123.5 -0.004 ★PR SR RSR
2015-02-07 Air Force HS Open 800m 2:42.53 22nd · 3rd on team 117.3 -0.004 PR SR

2014 TF 122.9

Cherokee Trail (CO) · Grade 9

Date Meet Event Result Place Rating Difficulty PR/SR Flags
2014-03-15 Aurora City Championships 3200m 12:47.71 3rd · 1st on team 122.9 +0.020 PR R SR RSR